createdAt,value
2022-08-08T00:00:50.324Z,100860.88
2022-08-08T00:02:31.482Z,100859.09
2022-08-08T00:05:43.454Z,100859.81
2022-08-08T00:08:24.567Z,100857.90
2022-08-08T00:11:08.102Z,100854.23
2022-08-08T00:14:15.438Z,100854.09
2022-08-08T00:17:23.463Z,100848.85
2022-08-08T00:20:02.836Z,100846.37
2022-08-08T00:22:41.596Z,100848.84
2022-08-08T00:25:16.972Z,100849.34
2022-08-08T00:27:45.595Z,100847.41
2022-08-08T00:30:15.831Z,100849.77
2022-08-08T00:33:07.017Z,100851.23
2022-08-08T00:36:01.379Z,100852.61
2022-08-08T00:38:51.403Z,100852.70
2022-08-08T00:42:08.255Z,100851.37
2022-08-08T00:44:57.895Z,100851.19
2022-08-08T00:48:05.261Z,100853.72
2022-08-08T00:51:09.959Z,100862.16
2022-08-08T00:54:04.271Z,100863.10
2022-08-08T00:57:00.938Z,100860.44
2022-08-08T01:00:06.768Z,100863.19
2022-08-08T01:03:57.934Z,100861.86
2022-08-08T01:06:00.937Z,100863.95
2022-08-08T01:08:57.608Z,100865.91
2022-08-08T01:12:05.359Z,100863.38
2022-08-08T01:15:02.707Z,100864.61
2022-08-08T01:18:25.297Z,100864.17
2022-08-08T01:21:12.290Z,100864.47
2022-08-08T01:24:06.403Z,100867.60
2022-08-08T01:27:16.134Z,100871.20
2022-08-08T01:30:20.902Z,100869.98
2022-08-08T01:33:24.295Z,100867.29
2022-08-08T01:36:23.042Z,100864.28
2022-08-08T01:39:24.176Z,100866.97
2022-08-08T01:42:15.769Z,100865.04
2022-08-08T01:45:15.418Z,100863.99
2022-08-08T01:48:23.469Z,100867.10
2022-08-08T01:52:00.138Z,100871.34
2022-08-08T01:55:19.326Z,100868.11
2022-08-08T01:58:12.061Z,100867.30
2022-08-08T02:00:58.790Z,100867.69
2022-08-08T02:03:55.624Z,100867.83
2022-08-08T02:06:43.424Z,100869.08
2022-08-08T02:10:03.920Z,100871.29
2022-08-08T02:12:53.561Z,100873.87
2022-08-08T02:15:34.537Z,100873.63
2022-08-08T02:18:18.289Z,100870.76
2022-08-08T02:21:13.229Z,100870.45
2022-08-08T02:24:06.179Z,100871.20
2022-08-08T02:26:51.365Z,100880.26
2022-08-08T02:29:47.031Z,100882.90
2022-08-08T02:32:54.253Z,100884.17
2022-08-08T02:36:04.106Z,100892.22
2022-08-08T02:39:01.207Z,100890.86
2022-08-08T02:41:59.048Z,100891.41
2022-08-08T02:44:57.094Z,100894.55
2022-08-08T02:48:08.060Z,100895.81
2022-08-08T02:51:01.824Z,100889.16
2022-08-08T02:54:01.246Z,100892.48
2022-08-08T02:56:48.376Z,100896.82
2022-08-08T02:59:56.882Z,100894.13
2022-08-08T03:02:37.085Z,100894.01
2022-08-08T03:05:45.191Z,100899.44
2022-08-08T03:08:15.670Z,100901.85
2022-08-08T03:11:13.948Z,100900.45
2022-08-08T03:16:01.859Z,100896.64
2022-08-08T03:17:42.892Z,100899.45
2022-08-08T03:20:28.169Z,100904.07
2022-08-08T03:23:00.455Z,100906.98
2022-08-08T03:25:36.179Z,100908.19
2022-08-08T03:28:12.943Z,100912.55
2022-08-08T03:30:49.067Z,100908.95
2022-08-08T03:33:55.468Z,100911.25
2022-08-08T03:36:30.657Z,100914.80
2022-08-08T03:39:15.367Z,100915.70
2022-08-08T03:42:27.023Z,100910.69
2022-08-08T03:44:39.022Z,100909.11
2022-08-08T03:47:20.336Z,100915.61
2022-08-08T03:50:00.044Z,100920.98
2022-08-08T03:52:45.177Z,100916.90
2022-08-08T03:55:56.628Z,100914.30
2022-08-08T03:58:31.181Z,100916.73
2022-08-08T04:01:02.770Z,100919.56
2022-08-08T04:03:59.990Z,100920.83
2022-08-08T04:06:34.920Z,100922.34
2022-08-08T04:09:11.376Z,100927.74
2022-08-08T04:11:48.539Z,100931.86
2022-08-08T04:14:35.401Z,100931.93
2022-08-08T04:17:06.939Z,100930.48
2022-08-08T04:19:44.744Z,100932.27
2022-08-08T04:22:16.737Z,100934.56
2022-08-08T04:24:48.706Z,100934.71
2022-08-08T04:28:02.346Z,100931.17
2022-08-08T04:30:18.033Z,100929.27
2022-08-08T04:32:50.595Z,100927.58
2022-08-08T04:35:22.796Z,100926.79
2022-08-08T04:37:54.348Z,100933.16
2022-08-08T04:40:26.048Z,100932.39
2022-08-08T04:43:03.752Z,100933.27
2022-08-08T04:45:36.934Z,100935.27
2022-08-08T04:48:06.121Z,100934.59
2022-08-08T04:50:38.909Z,100934.52
2022-08-08T04:54:26.838Z,100944.56
2022-08-08T04:56:02.714Z,100942.92
2022-08-08T04:58:34.835Z,100947.57
2022-08-08T05:01:08.893Z,100950.61
2022-08-08T05:04:10.325Z,100955.50
2022-08-08T05:06:29.562Z,100954.65
2022-08-08T05:09:03.031Z,100957.13
2022-08-08T05:11:38.965Z,100957.21
2022-08-08T05:14:12.273Z,100960.57
2022-08-08T05:16:54.720Z,100959.66
2022-08-08T05:20:11.041Z,100963.02
2022-08-08T05:22:21.035Z,100959.03
2022-08-08T05:24:50.955Z,100959.31
2022-08-08T05:27:22.017Z,100957.46
2022-08-08T05:29:53.497Z,100961.03
2022-08-08T05:32:27.603Z,100965.45
2022-08-08T05:35:04.968Z,100964.05
2022-08-08T05:37:53.082Z,100969.58
2022-08-08T05:40:31.553Z,100970.23
2022-08-08T05:43:40.109Z,100968.77
2022-08-08T05:46:03.645Z,100970.83
2022-08-08T05:48:37.742Z,100967.63
2022-08-08T05:51:14.794Z,100972.67
2022-08-08T05:54:24.482Z,100975.86
2022-08-08T05:56:42.684Z,100975.41
2022-08-08T05:59:59.766Z,100977.97
2022-08-08T06:02:41.019Z,100976.91
2022-08-08T06:05:34.794Z,100976.71
2022-08-08T06:08:09.602Z,100978.28
2022-08-08T06:10:41.202Z,100984.36
2022-08-08T06:13:13.775Z,100983.04
2022-08-08T06:15:51.035Z,100981.23
2022-08-08T06:18:28.453Z,100985.10
2022-08-08T06:21:03.655Z,100988.86
2022-08-08T06:23:53.060Z,100985.39
2022-08-08T06:26:44.133Z,100984.02
2022-08-08T06:29:48.810Z,100982.73
2022-08-08T06:32:18.447Z,100987.75
2022-08-08T06:35:11.620Z,100992.39
2022-08-08T06:37:55.845Z,100989.29
2022-08-08T06:40:32.095Z,100991.72
2022-08-08T06:43:05.079Z,100989.13
2022-08-08T06:45:39.566Z,100989.68
2022-08-08T06:48:10.122Z,100989.77
2022-08-08T06:50:41.743Z,100992.15
2022-08-08T06:53:17.483Z,100990.75
2022-08-08T06:56:02.071Z,100991.83
2022-08-08T06:58:33.036Z,100990.86
2022-08-08T07:01:52.481Z,100991.47
2022-08-08T07:04:39.617Z,100989.56
2022-08-08T07:06:57.093Z,100994.96
2022-08-08T07:09:41.478Z,100990.18
2022-08-08T07:12:30.585Z,100987.71
2022-08-08T07:15:06.231Z,100982.17
2022-08-08T07:18:01.504Z,100983.73
2022-08-08T07:20:40.504Z,100983.59
2022-08-08T07:23:26.223Z,100980.89
2022-08-08T07:26:03.131Z,100978.75
2022-08-08T07:28:32.114Z,100980.30
2022-08-08T07:31:05.601Z,100982.74
2022-08-08T07:33:37.951Z,100987.50
2022-08-08T07:36:09.364Z,100988.52
2022-08-08T07:38:38.183Z,100986.89
2022-08-08T07:41:23.384Z,100983.35
2022-08-08T07:43:55.832Z,100982.54
2022-08-08T07:46:30.927Z,100985.23
2022-08-08T07:49:07.590Z,100985.27
2022-08-08T07:51:44.759Z,100988.70
2022-08-08T07:54:49.153Z,100990.27
2022-08-08T07:57:48.536Z,100991.33
2022-08-08T08:00:19.104Z,100994.69
2022-08-08T08:03:04.364Z,100989.09
2022-08-08T08:05:42.662Z,100984.88
2022-08-08T08:08:27.017Z,100979.74
2022-08-08T08:11:00.011Z,100978.69
2022-08-08T08:14:08.402Z,100975.49
2022-08-08T08:16:50.590Z,100977.48
2022-08-08T08:19:22.997Z,100980.05
2022-08-08T08:21:57.771Z,100981.73
2022-08-08T08:24:47.364Z,100979.16
2022-08-08T08:27:20.255Z,100980.04
2022-08-08T08:29:51.002Z,100980.80
2022-08-08T08:32:32.129Z,100980.80
2022-08-08T08:35:07.759Z,100983.10
2022-08-08T08:37:59.341Z,100985.33
2022-08-08T08:40:25.777Z,100981.55
2022-08-08T08:42:56.275Z,100982.80
2022-08-08T08:45:26.279Z,100981.20
2022-08-08T08:48:00.951Z,100980.90
2022-08-08T08:50:35.229Z,100975.11
2022-08-08T08:53:54.503Z,100974.58
2022-08-08T08:56:07.799Z,100975.42
2022-08-08T08:58:46.987Z,100976.18
2022-08-08T09:01:26.673Z,100973.66
2022-08-08T09:04:01.715Z,100978.36
2022-08-08T09:06:40.458Z,100974.40
2022-08-08T09:09:39.802Z,100973.33
2022-08-08T09:12:19.849Z,100966.38
2022-08-08T09:14:51.638Z,100977.89
2022-08-08T09:17:40.962Z,100977.59
2022-08-08T09:22:00.535Z,100977.63
2022-08-08T09:23:01.419Z,100976.10
2022-08-08T09:25:36.134Z,100977.51
2022-08-08T09:28:23.960Z,100978.90
2022-08-08T09:31:13.412Z,100979.79
2022-08-08T09:34:14.912Z,100979.22
2022-08-08T09:36:35.878Z,100977.08
2022-08-08T09:39:10.223Z,100976.23
2022-08-08T09:42:20.226Z,100971.65
2022-08-08T09:45:20.699Z,100969.77
2022-08-08T09:48:17.992Z,100971.80
2022-08-08T09:50:56.098Z,100972.00
2022-08-08T09:53:59.783Z,100971.31
2022-08-08T09:56:25.260Z,100972.30
2022-08-08T09:59:07.856Z,100974.13
2022-08-08T10:01:59.072Z,100970.56
2022-08-08T10:04:38.678Z,100965.66
2022-08-08T10:07:15.903Z,100964.73
2022-08-08T10:09:59.647Z,100961.43
2022-08-08T10:12:52.853Z,100960.98
2022-08-08T10:15:25.392Z,100961.39
2022-08-08T10:18:07.409Z,100958.91
2022-08-08T10:20:57.368Z,100955.15
2022-08-08T10:23:59.863Z,100954.73
2022-08-08T10:27:01.833Z,100953.20
2022-08-08T10:29:59.198Z,100953.94
2022-08-08T10:32:34.407Z,100948.48
2022-08-08T10:36:07.067Z,100948.55
2022-08-08T10:38:08.024Z,100948.55
2022-08-08T10:40:38.691Z,100946.60
2022-08-08T10:43:09.713Z,100946.02
2022-08-08T10:45:56.644Z,100948.41
2022-08-08T10:48:56.267Z,100948.05
2022-08-08T10:51:31.337Z,100950.37
2022-08-08T10:54:10.450Z,100944.06
2022-08-08T10:56:43.161Z,100947.96
2022-08-08T10:59:14.773Z,100943.49
2022-08-08T11:01:49.525Z,100945.95
2022-08-08T11:04:29.735Z,100945.55
2022-08-08T11:07:07.338Z,100940.52
2022-08-08T11:09:46.220Z,100944.33
2022-08-08T11:12:19.767Z,100940.16
2022-08-08T11:14:50.701Z,100939.94
2022-08-08T11:18:00.120Z,100939.77
2022-08-08T11:20:18.258Z,100935.56
2022-08-08T11:22:54.890Z,100939.02
2022-08-08T11:25:52.897Z,100934.61
2022-08-08T11:28:14.017Z,100938.12
2022-08-08T11:30:50.580Z,100935.63
2022-08-08T11:33:50.959Z,100936.46
2022-08-08T11:36:15.447Z,100935.66
2022-08-08T11:38:54.616Z,100929.84
2022-08-08T11:41:28.001Z,100929.33
2022-08-08T11:44:01.426Z,100926.83
2022-08-08T11:46:32.564Z,100922.15
2022-08-08T11:49:03.942Z,100916.11
2022-08-08T11:51:40.537Z,100917.14
2022-08-08T11:54:33.282Z,100915.96
2022-08-08T11:57:14.036Z,100909.13
2022-08-08T12:00:01.036Z,100918.30
2022-08-08T12:02:55.755Z,100917.95
2022-08-08T12:05:33.568Z,100921.52
2022-08-08T12:08:04.420Z,100922.42
2022-08-08T12:10:33.841Z,100916.70
2022-08-08T12:13:10.721Z,100916.74
2022-08-08T12:15:48.289Z,100917.27
2022-08-08T12:18:24.807Z,100915.59
2022-08-08T12:20:55.277Z,100914.13
2022-08-08T12:23:43.587Z,100910.44
2022-08-08T12:26:27.793Z,100907.04
2022-08-08T12:29:25.933Z,100904.86
2022-08-08T12:32:17.147Z,100907.10
2022-08-08T12:34:53.814Z,100904.17
2022-08-08T12:37:41.083Z,100901.45
2022-08-08T12:40:22.729Z,100903.23
2022-08-08T12:42:53.269Z,100903.59
2022-08-08T12:45:58.626Z,100902.50
2022-08-08T12:48:37.453Z,100905.27
2022-08-08T12:51:11.469Z,100900.59
2022-08-08T12:53:57.458Z,100901.63
2022-08-08T12:56:38.791Z,100892.38
2022-08-08T12:59:36.461Z,100892.38
2022-08-08T13:02:23.871Z,100893.59
2022-08-08T13:05:01.491Z,100890.36
2022-08-08T13:08:03.245Z,100881.92
2022-08-08T13:10:32.834Z,100877.71
2022-08-08T13:13:06.059Z,100875.86
2022-08-08T13:15:36.943Z,100877.95
2022-08-08T13:18:10.889Z,100873.21
2022-08-08T13:20:48.956Z,100870.18
2022-08-08T13:23:36.939Z,100869.06
2022-08-08T13:26:15.792Z,100870.20
2022-08-08T13:28:49.487Z,100868.27
2022-08-08T13:31:17.571Z,100868.67
2022-08-08T13:33:49.863Z,100868.33
2022-08-08T13:36:26.368Z,100877.50
2022-08-08T13:38:59.491Z,100872.81
2022-08-08T13:41:39.625Z,100871.38
2022-08-08T13:44:19.961Z,100873.19
2022-08-08T13:46:59.314Z,100869.61
2022-08-08T13:50:35.690Z,100866.48
2022-08-08T13:52:35.824Z,100862.51
2022-08-08T13:55:06.998Z,100862.66
2022-08-08T13:57:46.301Z,100859.09
2022-08-08T14:00:24.679Z,100864.98
2022-08-08T14:03:00.991Z,100864.48
2022-08-08T14:05:34.419Z,100862.44
2022-08-08T14:08:11.617Z,100861.58
2022-08-08T14:10:45.502Z,100861.10
2022-08-08T14:13:30.658Z,100862.80
2022-08-08T14:16:03.096Z,100865.05
2022-08-08T14:18:36.331Z,100861.85
2022-08-08T14:21:20.931Z,100864.21
2022-08-08T14:24:06.521Z,100862.82
2022-08-08T14:26:42.421Z,100865.53
2022-08-08T14:29:28.513Z,100863.41
2022-08-08T14:32:09.248Z,100866.40
2022-08-08T14:34:42.506Z,100866.88
2022-08-08T14:37:13.620Z,100871.48
2022-08-08T14:39:48.348Z,100872.80
2022-08-08T14:42:33.943Z,100871.98
2022-08-08T14:45:10.087Z,100871.42
2022-08-08T14:47:57.524Z,100874.82
2022-08-08T14:50:38.048Z,100872.38
2022-08-08T14:53:13.253Z,100871.45
2022-08-08T14:55:43.042Z,100871.97
2022-08-08T14:58:16.494Z,100872.16
2022-08-08T15:00:49.166Z,100870.98
2022-08-08T15:03:18.664Z,100870.65
2022-08-08T15:05:54.383Z,100875.20
2022-08-08T15:08:35.542Z,100877.01
2022-08-08T15:11:11.390Z,100874.71
2022-08-08T15:14:01.179Z,100878.41
2022-08-08T15:16:29.437Z,100878.61
2022-08-08T15:19:03.901Z,100877.26
2022-08-08T15:21:32.281Z,100873.75
2022-08-08T15:24:00.849Z,100875.73
2022-08-08T15:26:29.534Z,100874.02
2022-08-08T15:28:57.781Z,100873.84
2022-08-08T15:31:48.948Z,100870.61
2022-08-08T15:34:28.772Z,100870.30
2022-08-08T15:37:02.315Z,100870.63
2022-08-08T15:39:38.290Z,100869.67
2022-08-08T15:42:10.631Z,100873.77
2022-08-08T15:44:45.782Z,100870.91
2022-08-08T15:47:16.212Z,100869.22
2022-08-08T15:49:49.053Z,100867.05
2022-08-08T15:52:20.738Z,100859.70
2022-08-08T15:54:52.577Z,100857.09
2022-08-08T15:57:22.380Z,100858.06
2022-08-08T16:00:14.168Z,100857.15
2022-08-08T16:02:50.281Z,100863.07
2022-08-08T16:05:21.423Z,100859.08
2022-08-08T16:07:53.844Z,100861.39
2022-08-08T16:13:05.029Z,100859.30
2022-08-08T16:13:43.262Z,100866.69
2022-08-08T16:16:09.286Z,100863.58
2022-08-08T16:18:42.540Z,100865.27
2022-08-08T16:21:20.818Z,100868.11
2022-08-08T16:23:56.255Z,100870.04
2022-08-08T16:26:34.292Z,100869.61
2022-08-08T16:29:15.263Z,100868.20
2022-08-08T16:31:48.939Z,100872.04
2022-08-08T16:34:22.371Z,100872.07
2022-08-08T16:36:53.216Z,100873.15
2022-08-08T16:40:01.099Z,100871.71
2022-08-08T16:42:17.767Z,100869.11
2022-08-08T16:44:54.281Z,100868.84
2022-08-08T16:47:41.340Z,100870.04
2022-08-08T16:50:14.789Z,100866.17
2022-08-08T16:55:01.405Z,100865.03
2022-08-08T16:55:55.051Z,100866.27
2022-08-08T16:58:32.467Z,100868.59
2022-08-08T17:01:04.201Z,100873.26
2022-08-08T17:03:58.473Z,100869.02
2022-08-08T17:06:37.251Z,100869.64
2022-08-08T17:09:15.324Z,100868.95
2022-08-08T17:11:52.216Z,100870.95
2022-08-08T17:14:33.153Z,100871.67
2022-08-08T17:17:41.600Z,100871.18
2022-08-08T17:19:55.399Z,100877.98
2022-08-08T17:22:33.181Z,100878.23
2022-08-08T17:25:09.003Z,100880.99
2022-08-08T17:27:46.376Z,100878.40
2022-08-08T17:30:27.145Z,100881.46
2022-08-08T17:34:36.932Z,100884.64
2022-08-08T17:35:56.160Z,100889.14
2022-08-08T17:38:33.344Z,100892.84
2022-08-08T17:41:02.236Z,100889.77
2022-08-08T17:43:29.992Z,100892.10
2022-08-08T17:46:42.377Z,100896.59
2022-08-08T17:49:13.275Z,100901.23
2022-08-08T17:51:46.079Z,100898.63
2022-08-08T17:54:22.568Z,100894.86
2022-08-08T17:56:54.259Z,100899.48
2022-08-08T17:59:23.513Z,100899.11
2022-08-08T18:02:03.111Z,100901.69
2022-08-08T18:04:34.144Z,100905.02
2022-08-08T18:08:02.736Z,100910.11
2022-08-08T18:09:57.503Z,100912.30
2022-08-08T18:12:27.581Z,100914.60
2022-08-08T18:14:55.760Z,100916.80
2022-08-08T18:17:28.721Z,100920.81
2022-08-08T18:20:36.647Z,100923.75
2022-08-08T18:23:03.183Z,100927.02
2022-08-08T18:25:37.281Z,100932.20
2022-08-08T18:28:05.561Z,100936.54
2022-08-08T18:30:34.753Z,100935.62
2022-08-08T18:33:04.014Z,100940.30
2022-08-08T18:35:41.844Z,100946.83
2022-08-08T18:38:19.258Z,100950.90
2022-08-08T18:40:50.275Z,100952.55
2022-08-08T18:43:23.006Z,100954.79
2022-08-08T18:46:54.197Z,100958.36
2022-08-08T18:48:40.422Z,100959.09
2022-08-08T18:51:33.391Z,100962.33
2022-08-08T18:54:02.744Z,100962.58
2022-08-08T18:56:33.114Z,100969.20
2022-08-08T18:59:03.828Z,100970.14
2022-08-08T19:02:25.918Z,100970.02
2022-08-08T19:04:22.520Z,100973.14
2022-08-08T19:06:55.579Z,100976.36
2022-08-08T19:09:49.568Z,100972.86
2022-08-08T19:12:13.400Z,100975.76
2022-08-08T19:14:42.813Z,100978.03
2022-08-08T19:17:11.687Z,100977.91
2022-08-08T19:20:02.659Z,100978.64
2022-08-08T19:22:31.425Z,100979.79
2022-08-08T19:25:18.268Z,100979.11
2022-08-08T19:27:56.456Z,100979.39
2022-08-08T19:30:26.846Z,100977.39
2022-08-08T19:32:58.174Z,100980.64
2022-08-08T19:35:45.415Z,100984.39
2022-08-08T19:38:22.098Z,100985.92
2022-08-08T19:40:55.623Z,100987.56
2022-08-08T19:43:28.143Z,100990.41
2022-08-08T19:46:00.798Z,100986.27
2022-08-08T19:48:31.152Z,100986.83
2022-08-08T19:51:00.829Z,100989.66
2022-08-08T19:53:51.069Z,100988.70
2022-08-08T19:56:25.849Z,100989.64
2022-08-08T19:59:07.433Z,100991.63
2022-08-08T20:01:59.768Z,100999.38
2022-08-08T20:04:24.779Z,101001.21
2022-08-08T20:06:56.849Z,101006.08
2022-08-08T20:09:30.105Z,101008.80
2022-08-08T20:12:01.273Z,101009.58
2022-08-08T20:14:34.318Z,101013.94
2022-08-08T20:17:04.950Z,101014.43
2022-08-08T20:19:34.813Z,101023.66
2022-08-08T20:22:21.022Z,101016.98
2022-08-08T20:25:00.385Z,101016.92
2022-08-08T20:27:43.958Z,101015.55
2022-08-08T20:30:52.780Z,101011.69
2022-08-08T20:33:18.540Z,101012.11
2022-08-08T20:35:59.135Z,101015.98
2022-08-08T20:38:33.131Z,101013.84
2022-08-08T20:41:05.850Z,101010.78
2022-08-08T20:43:49.581Z,101010.21
2022-08-08T20:46:25.705Z,101012.09
2022-08-08T20:48:58.569Z,101007.84
2022-08-08T20:51:32.464Z,101012.19
2022-08-08T20:54:07.707Z,101015.95
2022-08-08T20:57:04.278Z,101016.45
2022-08-08T20:59:30.718Z,101017.54
2022-08-08T21:02:07.677Z,101015.36
2022-08-08T21:04:38.102Z,101018.17
2022-08-08T21:07:15.820Z,101019.02
2022-08-08T21:10:02.148Z,101018.46
2022-08-08T21:12:38.675Z,101021.87
2022-08-08T21:15:11.195Z,101022.56
2022-08-08T21:17:45.073Z,101021.95
2022-08-08T21:20:24.294Z,101023.46
2022-08-08T21:23:03.377Z,101023.73
2022-08-08T21:25:36.362Z,101023.05
2022-08-08T21:28:14.553Z,101025.91
2022-08-08T21:30:49.898Z,101024.90
2022-08-08T21:33:20.769Z,101029.39
2022-08-08T21:36:14.974Z,101027.68
2022-08-08T21:38:37.235Z,101029.16
2022-08-08T21:41:07.380Z,101030.56
2022-08-08T21:43:36.440Z,101033.21
2022-08-08T21:48:00.706Z,101032.11
2022-08-08T21:48:55.823Z,101034.06
2022-08-08T21:54:17.303Z,101034.41
2022-08-08T21:54:53.901Z,101035.98
2022-08-08T21:57:08.293Z,101040.39
2022-08-08T22:00:01.641Z,101038.14
2022-08-08T22:02:26.790Z,101038.89
2022-08-08T22:04:59.134Z,101036.66
2022-08-08T22:07:39.426Z,101041.48
2022-08-08T22:10:18.251Z,101042.45
2022-08-08T22:13:17.005Z,101043.08
2022-08-08T22:15:58.624Z,101042.72
2022-08-08T22:18:32.592Z,101043.27
2022-08-08T22:21:13.740Z,101049.23
2022-08-08T22:23:50.761Z,101046.09
2022-08-08T22:26:28.784Z,101045.84
2022-08-08T22:29:15.044Z,101042.47
2022-08-08T22:32:01.401Z,101041.83
2022-08-08T22:34:32.494Z,101044.04
2022-08-08T22:37:01.367Z,101043.67
2022-08-08T22:39:46.345Z,101052.52
2022-08-08T22:42:27.379Z,101052.05
2022-08-08T22:44:59.899Z,101047.83
2022-08-08T22:47:34.446Z,101046.50
2022-08-08T22:50:09.754Z,101045.75
2022-08-08T22:52:58.751Z,101043.92
2022-08-08T22:55:57.676Z,101041.23
2022-08-08T22:58:30.963Z,101045.14
2022-08-08T23:01:00.523Z,101045.92
2022-08-08T23:03:34.225Z,101044.23
2022-08-08T23:06:18.308Z,101044.54
2022-08-08T23:08:55.904Z,101050.52
2022-08-08T23:12:18.002Z,101045.41
2022-08-08T23:14:20.466Z,101044.62
2022-08-08T23:16:57.784Z,101049.93
2022-08-08T23:19:30.706Z,101050.05
2022-08-08T23:22:05.538Z,101044.75
2022-08-08T23:24:36.523Z,101042.48
2022-08-08T23:27:06.742Z,101044.36
2022-08-08T23:29:35.750Z,101041.80
2022-08-08T23:32:06.666Z,101043.27
2022-08-08T23:34:40.026Z,101043.18
2022-08-08T23:37:17.691Z,101045.42
2022-08-08T23:39:55.569Z,101042.85
2022-08-08T23:42:26.058Z,101044.27
2022-08-08T23:44:56.317Z,101046.44
2022-08-08T23:49:02.239Z,101041.63
2022-08-08T23:50:30.028Z,101043.02
2022-08-08T23:53:03.674Z,101049.89
2022-08-08T23:55:38.276Z,101044.09
2022-08-08T23:58:32.126Z,101046.17
